Time;durP1;ratioP1;P1;durP2;ratioP2;P2;SDS_P1;SDS_P2;PMS_P1;PMS_P2;Temp;Humidity;BMP_temperature;BMP_pressure;BME280_temperature;BME280_humidity;BME280_pressure;Samples;Min_cycle;Max_cycle;Signal;HPM_P1;HPM_P2
2023/06/23 00:01:09;;;;;;;3.90;3.60;;;27.80;55.40;;;;;;222204;1264;25252;-52
2023/06/23 00:06:18;;;;;;;3.70;3.50;;;27.70;55.70;;;;;;222424;1258;25508;-55
2023/06/23 00:11:22;;;;;;;3.70;3.40;;;27.70;55.70;;;;;;222172;1261;23894;-54
2023/06/23 00:16:27;;;;;;;3.80;3.50;;;27.80;55.70;;;;;;222296;1251;22533;-54
2023/06/23 00:21:35;;;;;;;4.20;3.60;;;27.80;55.70;;;;;;222333;1261;24253;-54
2023/06/23 00:26:39;;;;;;;4.50;3.40;;;27.80;55.90;;;;;;222062;1260;24174;-53
2023/06/23 00:31:43;;;;;;;3.90;3.60;;;27.80;56.00;;;;;;221896;1255;22526;-52
2023/06/23 00:36:48;;;;;;;3.70;3.10;;;27.80;56.40;;;;;;222084;1254;25614;-56
2023/06/23 00:41:53;;;;;;;3.60;3.40;;;27.80;56.00;;;;;;221911;1258;22517;-55
2023/06/23 00:46:57;;;;;;;3.30;3.10;;;27.80;56.10;;;;;;222227;1263;22615;-53
2023/06/23 00:52:03;;;;;;;3.80;3.50;;;27.80;56.30;;;;;;230081;1267;22470;-51
2023/06/23 00:57:07;;;;;;;3.60;3.30;;;28.10;56.30;;;;;;230055;1261;22222;-52
2023/06/23 01:02:12;;;;;;;4.10;3.70;;;28.30;55.80;;;;;;230003;1267;22328;-51
2023/06/23 01:07:32;;;;;;;3.50;3.30;;;28.40;55.10;;;;;;229447;1264;22522;-48
2023/06/23 01:12:49;;;;;;;3.90;3.30;;;28.60;55.60;;;;;;223191;1257;25393;-54
2023/06/23 01:18:07;;;;;;;3.50;3.20;;;28.20;56.30;;;;;;221997;1264;24210;-53
2023/06/23 01:23:21;;;;;;;3.60;3.30;;;27.90;57.20;;;;;;222060;1248;25641;-52
2023/06/23 01:28:44;;;;;;;3.50;3.30;;;27.80;57.20;;;;;;222851;1254;22553;-51
2023/06/23 01:33:56;;;;;;;3.90;3.50;;;27.80;57.30;;;;;;222194;1254;22513;-50
2023/06/23 01:39:03;;;;;;;3.80;3.50;;;27.80;57.10;;;;;;221938;1258;22511;-49
2023/06/23 01:44:14;;;;;;;4.40;3.90;;;27.70;58.10;;;;;;221978;1257;22657;-52
2023/06/23 01:49:24;;;;;;;4.80;3.20;;;27.70;57.60;;;;;;221674;1253;22990;-54
2023/06/23 01:54:29;;;;;;;3.70;3.40;;;27.70;57.70;;;;;;221845;1257;22560;-53
2023/06/23 01:59:37;;;;;;;3.20;2.90;;;27.70;58.60;;;;;;222008;1254;22520;-51
2023/06/23 02:04:43;;;;;;;3.70;3.40;;;27.70;58.40;;;;;;222212;1257;22760;-52
2023/06/23 02:09:48;;;;;;;3.40;3.10;;;27.80;58.60;;;;;;222025;1259;23917;-54
2023/06/23 02:14:53;;;;;;;4.00;3.40;;;27.80;57.60;;;;;;221949;1261;286139;-50
2023/06/23 02:20:00;;;;;;;7.40;3.60;;;27.60;58.10;;;;;;222203;1254;23818;-53
2023/06/23 02:25:05;;;;;;;3.70;3.30;;;27.60;58.20;;;;;;222200;1253;25268;-54
2023/06/23 02:30:10;;;;;;;4.80;3.60;;;27.50;58.50;;;;;;221938;1260;23907;-53
2023/06/23 02:35:15;;;;;;;4.70;3.50;;;27.60;58.50;;;;;;222338;1252;25384;-53
2023/06/23 02:40:23;;;;;;;5.00;3.10;;;27.80;58.70;;;;;;222105;1253;22589;-54
2023/06/23 02:45:33;;;;;;;7.30;5.40;;;27.70;58.60;;;;;;222208;1260;24216;-54
2023/06/23 02:50:39;;;;;;;4.00;3.40;;;27.70;58.60;;;;;;222089;1260;22523;-50
2023/06/23 02:55:45;;;;;;;3.40;3.10;;;27.70;59.20;;;;;;229807;1260;22637;-51
2023/06/23 03:00:51;;;;;;;4.20;3.20;;;27.80;58.90;;;;;;221764;1261;22511;-51
2023/06/23 03:05:58;;;;;;;5.80;3.40;;;27.90;59.00;;;;;;230287;1261;22119;-50
2023/06/23 03:11:02;;;;;;;3.50;3.20;;;27.90;58.60;;;;;;226290;1261;23921;-53
2023/06/23 03:16:12;;;;;;;5.80;2.90;;;27.90;58.10;;;;;;222290;1253;23086;-54
2023/06/23 03:21:20;;;;;;;3.20;2.90;;;27.80;58.80;;;;;;222054;1257;22503;-52
2023/06/23 03:26:28;;;;;;;3.90;3.00;;;27.70;58.80;;;;;;221886;1244;25316;-53
2023/06/23 03:31:39;;;;;;;3.40;3.10;;;27.70;59.20;;;;;;222176;1265;25661;-53
2023/06/23 03:36:45;;;;;;;3.80;3.40;;;27.70;59.20;;;;;;222331;1255;25393;-51
2023/06/23 03:41:50;;;;;;;4.10;2.70;;;27.60;59.40;;;;;;221914;1260;24311;-51
2023/06/23 03:46:59;;;;;;;3.30;2.80;;;27.60;59.10;;;;;;221784;1253;24311;-52
2023/06/23 03:52:05;;;;;;;3.70;2.50;;;27.60;59.10;;;;;;222192;1262;24812;-53
2023/06/23 03:57:13;;;;;;;4.30;2.90;;;27.60;59.10;;;;;;225430;1260;22511;-54
2023/06/23 04:02:20;;;;;;;3.50;3.10;;;27.60;59.20;;;;;;222251;1253;22614;-54
2023/06/23 04:07:26;;;;;;;3.30;3.00;;;27.60;59.40;;;;;;221941;1265;22540;-53
2023/06/23 04:12:32;;;;;;;3.70;2.80;;;27.50;59.70;;;;;;222079;1261;22522;-53
2023/06/23 04:17:41;;;;;;;3.70;2.70;;;27.50;59.90;;;;;;222237;1261;22671;-52
2023/06/23 04:22:47;;;;;;;3.20;3.00;;;27.50;60.00;;;;;;222375;1266;22623;-53
2023/06/23 04:27:57;;;;;;;3.40;3.00;;;27.50;60.40;;;;;;222269;1261;22456;-55
2023/06/23 04:33:01;;;;;;;3.70;3.10;;;27.40;60.10;;;;;;222195;1260;23320;-51
2023/06/23 04:38:14;;;;;;;4.30;3.50;;;27.40;60.30;;;;;;221994;1255;24308;-53
2023/06/23 04:43:39;;;;;;;3.60;2.70;;;27.40;60.30;;;;;;222082;1253;22504;-53
2023/06/23 04:48:50;;;;;;;3.40;2.90;;;27.40;60.30;;;;;;222149;1264;22522;-50
2023/06/23 04:53:59;;;;;;;3.10;2.80;;;27.40;61.10;;;;;;222049;1256;22609;-52
2023/06/23 04:59:07;;;;;;;2.70;2.50;;;27.40;60.30;;;;;;222305;1257;26607;-53
2023/06/23 05:04:13;;;;;;;5.10;3.00;;;27.40;60.40;;;;;;222018;1260;24255;-55
2023/06/23 05:09:18;;;;;;;3.10;2.80;;;27.40;60.60;;;;;;222152;1266;25288;-54
2023/06/23 05:14:26;;;;;;;3.20;2.90;;;27.30;60.70;;;;;;222256;1262;23067;-52
2023/06/23 05:19:32;;;;;;;2.90;2.70;;;27.40;60.80;;;;;;222152;1260;24274;-55
2023/06/23 05:24:40;;;;;;;4.70;3.00;;;27.40;61.00;;;;;;222668;1261;24158;-51
2023/06/23 05:29:47;;;;;;;3.30;2.80;;;27.30;61.10;;;;;;222250;1262;22531;-51
2023/06/23 05:34:57;;;;;;;3.10;2.90;;;27.30;61.70;;;;;;221994;1256;22523;-52
2023/06/23 05:40:03;;;;;;;3.60;2.70;;;27.30;61.50;;;;;;222689;1261;22508;-50
2023/06/23 05:45:10;;;;;;;4.40;2.60;;;27.30;61.30;;;;;;222384;1256;22844;-53
2023/06/23 05:50:35;;;;;;;4.80;2.60;;;27.40;61.40;;;;;;222362;1263;22709;-53
2023/06/23 05:55:47;;;;;;;8.00;3.60;;;27.40;61.50;;;;;;222709;1246;23899;-53
2023/06/23 06:00:54;;;;;;;8.10;4.10;;;27.40;62.30;;;;;;222688;1257;26622;-56
2023/06/23 06:06:02;;;;;;;6.40;4.30;;;27.00;64.10;;;;;;222097;1265;22779;-56
2023/06/23 06:11:09;;;;;;;13.80;4.60;;;26.90;65.10;;;;;;222027;1256;22567;-58
2023/06/23 06:16:14;;;;;;;4.90;4.50;;;26.70;66.00;;;;;;222183;1262;24279;-58
2023/06/23 06:21:20;;;;;;;5.90;4.20;;;26.70;66.00;;;;;;222279;1255;24341;-55
2023/06/23 06:26:25;;;;;;;7.40;3.90;;;26.60;66.60;;;;;;222781;1255;25434;-56
2023/06/23 06:31:32;;;;;;;11.10;4.90;;;26.70;66.80;;;;;;222310;1253;23902;-57
2023/06/23 06:36:38;;;;;;;11.50;5.90;;;26.60;67.30;;;;;;222001;1256;22498;-57
2023/06/23 06:41:45;;;;;;;6.60;4.90;;;26.60;67.90;;;;;;221952;1255;22511;-54
2023/06/23 06:46:53;;;;;;;6.10;5.50;;;26.40;68.30;;;;;;221832;1255;25207;-56
2023/06/23 06:51:59;;;;;;;8.90;5.50;;;26.40;68.80;;;;;;222629;1265;25461;-55
2023/06/23 06:57:04;;;;;;;8.50;5.90;;;26.30;69.10;;;;;;222140;1254;22528;-56
2023/06/23 07:02:09;;;;;;;7.20;6.50;;;26.20;69.80;;;;;;222427;1262;22505;-60
2023/06/23 07:07:15;;;;;;;9.60;6.00;;;26.10;70.60;;;;;;222194;1260;22494;-59
2023/06/23 07:12:19;;;;;;;10.30;6.30;;;26.10;70.90;;;;;;222646;1257;25577;-59
2023/06/23 07:17:26;;;;;;;13.40;6.70;;;26.10;71.30;;;;;;222434;1260;22504;-57
2023/06/23 07:22:33;;;;;;;9.50;6.50;;;26.10;71.90;;;;;;222433;1253;22514;-58
2023/06/23 07:27:37;;;;;;;7.80;7.10;;;26.00;72.00;;;;;;222640;1254;22522;-57
2023/06/23 07:32:45;;;;;;;7.70;6.40;;;26.00;71.90;;;;;;222242;1254;24203;-57
2023/06/23 07:37:49;;;;;;;11.00;6.40;;;26.00;72.10;;;;;;222358;1254;27730;-54
2023/06/23 07:42:53;;;;;;;11.20;7.30;;;25.90;72.20;;;;;;222504;1260;25227;-57
2023/06/23 07:47:57;;;;;;;9.80;6.20;;;25.80;72.80;;;;;;222248;1266;22516;-51
2023/06/23 07:53:02;;;;;;;12.30;6.60;;;25.80;72.50;;;;;;222359;1260;23000;-50
2023/06/23 07:58:06;;;;;;;9.80;7.30;;;25.80;72.40;;;;;;222598;1260;22523;-54
2023/06/23 08:03:10;;;;;;;11.20;8.60;;;25.80;72.20;;;;;;222604;1256;22696;-53
2023/06/23 08:08:15;;;;;;;10.70;9.60;;;25.80;71.90;;;;;;222690;1252;22587;-55
2023/06/23 08:13:19;;;;;;;12.40;10.00;;;25.80;72.00;;;;;;222413;1262;26566;-55
2023/06/23 08:18:23;;;;;;;15.90;10.20;;;25.80;72.50;;;;;;222664;1260;23728;-54
2023/06/23 08:23:28;;;;;;;12.60;10.70;;;25.90;72.30;;;;;;222456;1265;24193;-57
2023/06/23 08:28:38;;;;;;;10.90;9.50;;;25.90;72.40;;;;;;222201;1265;22623;-55
2023/06/23 08:33:43;;;;;;;11.00;9.70;;;26.00;71.70;;;;;;222332;1265;24361;-54
2023/06/23 08:38:48;;;;;;;10.70;9.60;;;25.90;71.80;;;;;;222511;1262;22668;-57
2023/06/23 08:43:53;;;;;;;11.00;9.30;;;25.80;72.50;;;;;;223060;1262;22521;-53
2023/06/23 08:49:05;;;;;;;10.50;9.60;;;25.90;72.20;;;;;;222452;1251;22541;-56
2023/06/23 08:54:10;;;;;;;10.60;9.10;;;25.90;72.40;;;;;;222896;1253;22543;-56
2023/06/23 08:59:15;;;;;;;11.20;9.90;;;26.10;71.10;;;;;;223247;1260;24771;-58
2023/06/23 09:04:20;;;;;;;11.10;9.10;;;26.10;72.10;;;;;;222419;1262;25552;-57
2023/06/23 09:09:26;;;;;;;13.90;10.40;;;26.20;71.40;;;;;;222437;1262;22818;-54
2023/06/23 09:14:34;;;;;;;12.10;9.20;;;26.20;72.00;;;;;;226265;1255;24377;-54
2023/06/23 09:20:26;;;;;;;11.50;8.50;;;26.30;71.70;;;;;;224742;1256;22724;-53
2023/06/23 09:25:38;;;;;;;11.50;8.40;;;26.40;72.50;;;;;;222971;1260;24207;-52
2023/06/23 09:30:42;;;;;;;10.00;8.20;;;26.40;71.60;;;;;;222324;1261;22653;-55
2023/06/23 09:35:53;;;;;;;8.30;7.40;;;26.30;72.00;;;;;;222637;1254;22644;-55
2023/06/23 09:41:17;;;;;;;9.30;8.10;;;26.50;71.50;;;;;;222585;1262;24009;-57
2023/06/23 09:46:22;;;;;;;9.10;7.90;;;26.50;72.10;;;;;;222266;1262;22522;-56
2023/06/23 09:51:28;;;;;;;8.80;7.90;;;26.50;71.90;;;;;;222846;1263;24182;-57
2023/06/23 09:56:33;;;;;;;8.90;7.50;;;26.60;71.40;;;;;;223686;1263;24211;-59
2023/06/23 10:01:41;;;;;;;7.80;6.90;;;26.60;71.90;;;;;;222121;1246;22555;-57
2023/06/23 10:06:45;;;;;;;7.50;6.80;;;26.50;71.20;;;;;;223104;1261;25249;-55
2023/06/23 10:11:49;;;;;;;8.90;7.50;;;26.60;70.90;;;;;;223354;1265;22567;-53
2023/06/23 10:16:57;;;;;;;9.00;6.80;;;26.50;71.00;;;;;;222703;1259;22573;-54
2023/06/23 10:22:02;;;;;;;7.60;7.00;;;26.50;70.80;;;;;;222358;1265;25442;-51
2023/06/23 10:27:08;;;;;;;7.90;6.90;;;26.40;71.20;;;;;;222328;1262;25485;-54
2023/06/23 10:32:17;;;;;;;7.90;6.70;;;26.50;70.40;;;;;;222605;1265;24242;-55
2023/06/23 10:37:26;;;;;;;8.10;7.30;;;26.40;70.60;;;;;;222215;1263;22605;-52
2023/06/23 10:42:50;;;;;;;8.90;6.30;;;26.40;71.00;;;;;;222469;1256;22525;-55
2023/06/23 10:47:56;;;;;;;8.20;5.70;;;26.30;69.80;;;;;;222731;1264;26613;-55
2023/06/23 10:53:18;;;;;;;9.10;7.20;;;26.30;70.40;;;;;;222799;1262;22545;-57
2023/06/23 10:58:23;;;;;;;9.60;7.70;;;26.40;70.40;;;;;;222225;1260;25319;-58
2023/06/23 11:03:32;;;;;;;10.90;7.10;;;26.40;70.00;;;;;;222422;1257;22514;-55
2023/06/23 11:08:44;;;;;;;8.40;7.10;;;26.60;69.30;;;;;;222865;1257;22594;-56
2023/06/23 11:13:50;;;;;;;7.60;6.70;;;26.70;68.50;;;;;;222584;1260;24257;-57
2023/06/23 11:19:02;;;;;;;7.20;6.60;;;26.90;68.10;;;;;;223389;1253;22515;-54
2023/06/23 11:24:21;;;;;;;7.80;6.90;;;26.90;67.90;;;;;;224399;1261;25381;-53
2023/06/23 11:29:25;;;;;;;9.10;7.00;;;27.00;67.40;;;;;;222886;1261;22575;-56
2023/06/23 11:34:49;;;;;;;8.40;6.90;;;26.80;67.60;;;;;;222273;1261;22573;-52
2023/06/23 11:39:54;;;;;;;7.20;6.50;;;26.90;66.90;;;;;;222539;1257;22504;-52
2023/06/23 11:44:58;;;;;;;7.60;6.40;;;26.80;67.30;;;;;;223212;1263;22522;-50
2023/06/23 11:50:06;;;;;;;9.10;7.10;;;26.90;67.00;;;;;;222805;1261;22614;-54
2023/06/23 11:55:10;;;;;;;8.10;7.30;;;26.90;67.20;;;;;;222574;1258;24289;-56
2023/06/23 12:00:16;;;;;;;7.60;6.90;;;26.90;67.80;;;;;;222586;1254;25245;-56
2023/06/23 12:05:20;;;;;;;9.10;8.40;;;26.90;68.00;;;;;;222999;1264;23894;-47
2023/06/23 12:10:25;;;;;;;12.50;8.40;;;27.00;68.00;;;;;;226778;1253;25484;-46
2023/06/23 12:15:29;;;;;;;9.50;8.30;;;26.90;67.70;;;;;;224371;1265;22498;-47
2023/06/23 12:20:35;;;;;;;9.30;7.50;;;27.00;67.40;;;;;;225858;1268;22508;-46
2023/06/23 12:25:49;;;;;;;9.50;8.20;;;26.90;67.60;;;;;;223721;1260;22521;-49
2023/06/23 12:30:53;;;;;;;8.50;7.60;;;27.00;67.30;;;;;;222999;1263;22539;-44
2023/06/23 12:36:00;;;;;;;8.50;7.60;;;27.10;67.10;;;;;;222304;1263;22516;-46
2023/06/23 12:41:19;;;;;;;8.40;7.50;;;27.00;67.70;;;;;;222263;1268;24228;-47
2023/06/23 12:46:28;;;;;;;8.50;7.70;;;27.10;66.70;;;;;;222305;1263;24184;-50
2023/06/23 12:51:37;;;;;;;8.70;7.90;;;27.20;66.50;;;;;;221913;1268;24194;-49
2023/06/23 12:56:41;;;;;;;8.50;7.20;;;27.20;66.30;;;;;;221932;1255;24247;-47
2023/06/23 13:01:45;;;;;;;8.00;7.40;;;27.20;67.00;;;;;;221970;1269;25436;-47
2023/06/23 13:06:50;;;;;;;9.00;7.20;;;27.20;66.20;;;;;;222485;1265;23160;-48
2023/06/23 13:11:55;;;;;;;9.30;7.90;;;27.20;66.50;;;;;;222891;1262;24700;-51
2023/06/23 13:16:59;;;;;;;8.40;7.10;;;27.10;67.80;;;;;;222787;1265;23217;-54
2023/06/23 13:22:04;;;;;;;11.50;6.80;;;26.80;70.20;;;;;;222775;1253;22533;-54
2023/06/23 13:27:10;;;;;;;8.90;7.50;;;26.90;70.60;;;;;;222477;1265;22605;-56
2023/06/23 13:32:14;;;;;;;8.00;7.20;;;26.90;71.10;;;;;;222422;1262;22517;-52
2023/06/23 13:37:18;;;;;;;9.50;7.60;;;26.90;71.90;;;;;;222994;1262;22508;-55
2023/06/23 13:42:23;;;;;;;8.90;8.10;;;26.60;73.20;;;;;;222751;1265;25637;-53
2023/06/23 13:47:27;;;;;;;12.10;9.90;;;26.10;75.90;;;;;;222718;1262;22604;-49
2023/06/23 13:52:31;;;;;;;9.30;8.50;;;25.70;79.60;;;;;;222964;1264;25224;-50
2023/06/23 13:57:37;;;;;;;9.30;8.40;;;26.00;78.20;;;;;;222702;1263;25951;-47
2023/06/23 14:02:49;;;;;;;9.00;7.90;;;26.40;75.50;;;;;;215397;1307;543246;-50
2023/06/23 14:07:55;;;;;;;8.60;7.60;;;26.40;73.40;;;;;;219924;1275;22471;-51
2023/06/23 14:12:59;;;;;;;8.00;7.20;;;26.20;73.80;;;;;;221030;1279;196644;-49
2023/06/23 14:18:04;;;;;;;11.40;8.40;;;26.20;73.60;;;;;;219951;1276;25422;-51
2023/06/23 14:23:08;;;;;;;10.00;7.80;;;26.40;73.40;;;;;;219925;1276;22523;-53
2023/06/23 14:28:12;;;;;;;11.20;7.60;;;26.70;73.10;;;;;;219929;1266;23185;-48
2023/06/23 14:33:16;;;;;;;10.70;8.40;;;27.00;73.20;;;;;;220172;1269;22528;-54
2023/06/23 14:38:20;;;;;;;11.00;7.80;;;27.30;72.60;;;;;;219647;1270;25291;-53
2023/06/23 14:43:25;;;;;;;9.40;8.20;;;27.10;73.10;;;;;;219884;1262;22639;-53
2023/06/23 14:48:29;;;;;;;9.40;7.70;;;27.20;73.70;;;;;;220042;1266;22545;-55
2023/06/23 14:53:36;;;;;;;13.40;8.20;;;27.10;73.90;;;;;;223238;1276;25462;-53
2023/06/23 14:58:40;;;;;;;10.20;8.10;;;27.30;73.30;;;;;;219914;1266;23480;-52
2023/06/23 15:03:45;;;;;;;12.10;7.60;;;27.40;72.10;;;;;;220564;1266;22704;-56
2023/06/23 15:08:50;;;;;;;7.80;6.60;;;27.00;72.60;;;;;;220010;1273;25471;-56
2023/06/23 15:13:55;;;;;;;9.50;6.30;;;27.10;72.70;;;;;;223803;1276;23922;-51
2023/06/23 15:18:59;;;;;;;7.70;4.30;;;27.30;71.80;;;;;;220684;1275;24180;-50
2023/06/23 15:24:04;;;;;;;6.30;4.10;;;27.20;70.10;;;;;;221972;1264;22655;-50
2023/06/23 15:29:08;;;;;;;6.60;3.70;;;26.70;71.00;;;;;;222723;1263;22980;-49
2023/06/23 15:34:12;;;;;;;5.20;3.70;;;27.00;70.90;;;;;;222256;1260;22523;-52
2023/06/23 15:39:16;;;;;;;8.50;3.60;;;27.10;70.50;;;;;;221953;1260;22565;-50
2023/06/23 15:44:22;;;;;;;9.90;3.40;;;27.10;70.70;;;;;;226352;1263;26621;-49
2023/06/23 15:49:30;;;;;;;6.10;3.00;;;27.30;69.40;;;;;;221787;1263;24072;-51
2023/06/23 15:54:35;;;;;;;5.60;2.60;;;27.30;68.90;;;;;;222080;1263;24217;-51
2023/06/23 15:59:43;;;;;;;7.40;2.90;;;27.20;69.00;;;;;;222412;1266;25945;-50
2023/06/23 16:04:51;;;;;;;2.60;2.40;;;27.10;69.00;;;;;;221990;1263;25373;-52
2023/06/23 16:09:57;;;;;;;6.60;2.70;;;27.10;69.20;;;;;;222407;1263;25213;-52
2023/06/23 16:15:04;;;;;;;3.50;2.40;;;27.20;68.70;;;;;;222244;1250;22620;-51
2023/06/23 16:20:09;;;;;;;3.80;2.60;;;27.40;69.30;;;;;;221810;1260;22850;-52
2023/06/23 16:25:14;;;;;;;4.70;2.70;;;27.30;69.50;;;;;;221887;1264;22521;-50
2023/06/23 16:30:19;;;;;;;3.50;2.50;;;27.30;70.30;;;;;;222140;1268;25550;-49
2023/06/23 16:35:24;;;;;;;3.70;2.40;;;27.30;70.20;;;;;;222236;1263;24405;-53
2023/06/23 16:40:28;;;;;;;2.50;2.30;;;27.20;70.30;;;;;;222090;1263;25387;-51
2023/06/23 16:45:32;;;;;;;2.80;2.40;;;27.30;70.70;;;;;;222597;1248;24255;-52
2023/06/23 16:50:37;;;;;;;5.20;2.90;;;27.20;70.80;;;;;;222233;1261;22510;-53
2023/06/23 16:55:43;;;;;;;2.80;2.50;;;27.30;71.30;;;;;;221930;1266;22763;-52
2023/06/23 17:00:49;;;;;;;4.70;2.70;;;27.30;71.00;;;;;;222044;1262;22511;-49
2023/06/23 17:05:53;;;;;;;2.90;2.70;;;27.20;71.20;;;;;;222004;1264;24137;-51
2023/06/23 17:10:59;;;;;;;3.20;2.80;;;27.30;70.90;;;;;;222158;1259;23977;-49
2023/06/23 17:16:04;;;;;;;3.30;2.80;;;27.30;70.70;;;;;;222080;1262;22517;-49
2023/06/23 17:21:09;;;;;;;4.30;3.20;;;27.20;70.80;;;;;;221899;1263;22647;-50
2023/06/23 17:26:13;;;;;;;3.70;3.10;;;27.10;70.80;;;;;;222162;1265;22511;-48
2023/06/23 17:31:21;;;;;;;4.40;3.70;;;27.20;71.00;;;;;;222167;1266;23911;-49
2023/06/23 17:36:27;;;;;;;3.80;3.40;;;27.20;71.00;;;;;;221918;1266;22647;-53
2023/06/23 17:41:34;;;;;;;4.90;3.30;;;27.20;70.90;;;;;;222017;1246;24241;-52
2023/06/23 17:46:42;;;;;;;4.50;3.30;;;27.30;70.30;;;;;;222190;1262;22613;-47
2023/06/23 17:51:46;;;;;;;10.60;3.90;;;27.20;70.20;;;;;;222333;1254;24205;-53
2023/06/23 17:56:50;;;;;;;3.50;3.20;;;27.20;70.80;;;;;;221849;1253;22571;-49
2023/06/23 18:01:55;;;;;;;10.00;3.50;;;27.30;70.70;;;;;;222011;1246;24183;-51
2023/06/23 18:06:59;;;;;;;4.30;3.60;;;27.20;70.60;;;;;;222784;1246;25239;-56
2023/06/23 18:12:04;;;;;;;12.30;4.10;;;27.00;70.30;;;;;;222253;1257;22788;-52
2023/06/23 18:17:08;;;;;;;13.60;4.00;;;26.90;71.20;;;;;;222365;1259;22525;-49
2023/06/23 18:22:13;;;;;;;6.50;3.70;;;26.90;72.10;;;;;;222418;1264;22526;-51
2023/06/23 18:27:17;;;;;;;6.90;4.20;;;26.90;71.10;;;;;;222442;1263;22631;-54
2023/06/23 18:37:44;;;;;;;7.70;4.60;;;26.90;71.20;;;;;;222026;1264;22511;-52
2023/06/23 18:42:48;;;;;;;5.10;4.60;;;27.00;70.40;;;;;;223324;1254;22533;-52
2023/06/23 18:47:53;;;;;;;5.10;4.70;;;27.00;70.60;;;;;;222359;1266;22620;-54
2023/06/23 18:52:58;;;;;;;6.50;4.80;;;27.00;70.60;;;;;;222206;1261;22630;-49
2023/06/23 18:58:03;;;;;;;8.00;4.90;;;27.00;71.40;;;;;;222592;1260;25388;-50
2023/06/23 19:03:07;;;;;;;7.60;5.10;;;27.00;70.80;;;;;;222375;1263;22592;-54
2023/06/23 19:08:12;;;;;;;5.70;4.60;;;27.10;70.80;;;;;;222260;1257;22804;-50
2023/06/23 19:13:17;;;;;;;6.30;5.40;;;27.00;70.00;;;;;;222319;1267;25355;-51
2023/06/23 19:18:21;;;;;;;6.00;5.00;;;26.90;69.80;;;;;;222381;1263;22498;-50
2023/06/23 19:23:25;;;;;;;7.50;6.10;;;26.60;69.60;;;;;;222561;1263;22810;-54
2023/06/23 19:28:30;;;;;;;7.80;6.50;;;26.40;70.00;;;;;;222811;1257;24247;-54
2023/06/23 19:33:34;;;;;;;11.10;6.90;;;26.30;70.40;;;;;;222695;1260;23108;-50
2023/06/23 19:38:38;;;;;;;7.60;6.80;;;26.10;71.40;;;;;;222556;1263;22993;-46
2023/06/23 19:43:43;;;;;;;11.70;7.00;;;26.10;72.70;;;;;;222446;1254;22524;-48
2023/06/23 19:48:47;;;;;;;7.00;6.50;;;26.10;72.50;;;;;;222568;1254;22653;-47
2023/06/23 19:53:51;;;;;;;8.50;7.40;;;26.00;73.00;;;;;;222261;1251;22622;-47
2023/06/23 19:58:55;;;;;;;8.50;7.80;;;25.80;73.20;;;;;;222443;1246;22511;-47
2023/06/23 20:04:00;;;;;;;9.60;8.70;;;25.70;72.90;;;;;;222297;1264;22651;-47
2023/06/23 20:09:04;;;;;;;11.10;10.00;;;25.10;73.00;;;;;;222359;1257;22520;-45
2023/06/23 20:14:10;;;;;;;10.90;10.00;;;25.00;73.60;;;;;;222027;1261;22642;-46
2023/06/23 20:19:16;;;;;;;18.70;9.80;;;25.00;73.80;;;;;;221939;1264;22641;-47
2023/06/23 20:24:20;;;;;;;10.80;9.50;;;25.20;73.00;;;;;;221952;1247;24212;-45
2023/06/23 20:29:24;;;;;;;10.40;9.60;;;25.30;72.70;;;;;;222254;1261;22855;-46
2023/06/23 20:34:29;;;;;;;10.80;9.70;;;25.30;72.80;;;;;;222354;1261;22525;-44
2023/06/23 20:39:33;;;;;;;10.20;9.20;;;25.20;73.00;;;;;;222020;1251;25744;-46
2023/06/23 20:44:37;;;;;;;10.70;9.80;;;25.10;73.50;;;;;;222183;1253;22553;-45
2023/06/23 20:49:42;;;;;;;10.50;9.40;;;25.10;74.10;;;;;;222290;1251;24224;-47
2023/06/23 20:54:47;;;;;;;10.70;9.70;;;25.00;74.90;;;;;;222269;1264;22530;-44
2023/06/23 20:59:51;;;;;;;10.10;9.20;;;25.00;75.40;;;;;;222000;1254;22522;-45
2023/06/23 21:04:55;;;;;;;11.50;10.10;;;25.10;74.50;;;;;;222240;1260;22570;-44
2023/06/23 21:09:59;;;;;;;13.10;10.80;;;25.10;74.40;;;;;;223054;1258;22853;-46
2023/06/23 21:15:08;;;;;;;13.10;11.80;;;25.10;74.40;;;;;;222690;1264;22588;-45
2023/06/23 21:20:12;;;;;;;15.40;13.00;;;25.10;73.90;;;;;;222342;1257;25373;-47
2023/06/23 21:25:20;;;;;;;13.60;12.40;;;24.90;74.30;;;;;;222334;1258;25612;-48
2023/06/23 21:30:24;;;;;;;12.90;11.70;;;25.10;73.40;;;;;;221888;1268;22515;-50
2023/06/23 21:35:28;;;;;;;12.80;11.50;;;25.20;73.10;;;;;;222315;1260;22613;-45
2023/06/23 21:40:32;;;;;;;12.70;11.40;;;25.20;73.00;;;;;;222700;1260;22730;-47
2023/06/23 21:45:37;;;;;;;12.20;11.10;;;25.50;72.80;;;;;;222543;1260;24180;-46
2023/06/23 21:50:41;;;;;;;11.40;10.40;;;25.70;72.10;;;;;;221990;1245;22590;-46
2023/06/23 21:55:45;;;;;;;12.40;11.00;;;25.70;72.20;;;;;;222073;1256;22512;-47
2023/06/23 22:00:49;;;;;;;17.50;12.50;;;25.80;73.00;;;;;;222030;1245;22518;-47
2023/06/23 22:05:53;;;;;;;12.50;11.20;;;26.00;74.40;;;;;;222087;1245;23882;-48
2023/06/23 22:10:58;;;;;;;11.90;10.60;;;26.10;72.60;;;;;;222352;1256;22703;-49
2023/06/23 22:16:02;;;;;;;13.20;11.30;;;26.10;73.20;;;;;;222402;1254;22885;-49
2023/06/23 22:21:06;;;;;;;12.20;11.30;;;26.20;72.80;;;;;;222713;1256;24108;-47
2023/06/23 22:26:11;;;;;;;13.00;11.40;;;26.30;73.40;;;;;;222108;1263;22570;-48
2023/06/23 22:31:15;;;;;;;11.80;10.60;;;26.20;73.40;;;;;;222237;1264;22517;-49
2023/06/23 22:36:19;;;;;;;11.80;10.70;;;26.10;73.10;;;;;;222299;1253;22530;-48
2023/06/23 22:41:24;;;;;;;10.90;9.80;;;26.20;73.50;;;;;;222436;1257;22511;-45
2023/06/23 22:46:29;;;;;;;9.90;9.00;;;26.10;73.60;;;;;;222226;1256;22612;-47
2023/06/23 22:51:33;;;;;;;10.10;9.10;;;26.20;73.10;;;;;;222200;1254;22517;-48
2023/06/23 22:56:37;;;;;;;12.30;9.60;;;26.20;72.30;;;;;;222429;1260;22579;-48
2023/06/23 23:01:41;;;;;;;13.40;12.30;;;26.20;72.10;;;;;;222446;1253;25048;-50
2023/06/23 23:06:45;;;;;;;12.80;11.50;;;26.30;71.20;;;;;;222747;1264;23123;-46
2023/06/23 23:11:49;;;;;;;12.50;11.30;;;26.10;71.80;;;;;;223156;1254;24219;-48
2023/06/23 23:16:55;;;;;;;13.00;11.80;;;26.10;72.20;;;;;;222325;1266;24387;-48
2023/06/23 23:21:59;;;;;;;13.50;12.10;;;26.10;72.30;;;;;;222303;1247;22541;-47
2023/06/23 23:27:04;;;;;;;12.80;11.50;;;26.10;71.10;;;;;;222238;1260;22518;-46
2023/06/23 23:32:10;;;;;;;14.20;12.20;;;26.10;71.30;;;;;;222896;1260;22746;-48
2023/06/23 23:37:14;;;;;;;13.20;11.90;;;26.10;71.40;;;;;;222375;1253;23166;-50
2023/06/23 23:42:19;;;;;;;13.20;11.80;;;26.00;70.80;;;;;;222359;1257;22687;-44
2023/06/23 23:47:23;;;;;;;13.10;11.40;;;25.90;70.30;;;;;;222542;1263;22526;-47
2023/06/23 23:52:27;;;;;;;13.90;12.00;;;26.00;70.00;;;;;;222512;1260;22593;-49
2023/06/23 23:57:31;;;;;;;12.90;11.60;;;26.00;69.70;;;;;;222575;1264;22537;-45
